createdAt,value
2022-11-25T00:01:36.593Z,12.60
2022-11-25T00:04:06.301Z,12.60
2022-11-25T00:06:35.717Z,12.70
2022-11-25T00:09:11.605Z,12.70
2022-11-25T00:11:41.343Z,12.80
2022-11-25T00:14:13.398Z,12.70
2022-11-25T00:16:45.190Z,12.70
2022-11-25T00:19:15.758Z,12.70
2022-11-25T00:21:42.978Z,12.70
2022-11-25T00:24:13.280Z,12.60
2022-11-25T00:26:45.199Z,12.60
2022-11-25T00:29:14.272Z,12.70
2022-11-25T00:31:41.902Z,12.60
2022-11-25T00:34:15.439Z,12.60
2022-11-25T00:36:42.916Z,12.70
2022-11-25T00:39:15.955Z,12.80
2022-11-25T00:42:03.449Z,12.70
2022-11-25T00:44:38.414Z,12.80
2022-11-25T00:47:20.734Z,12.80
2022-11-25T00:49:52.794Z,12.70
2022-11-25T00:52:25.368Z,12.40
2022-11-25T00:54:53.916Z,12.20
2022-11-25T00:57:23.560Z,12.00
2022-11-25T00:59:53.193Z,12.00
2022-11-25T01:02:21.164Z,11.90
2022-11-25T01:04:48.448Z,12.00
2022-11-25T01:07:18.003Z,12.10
2022-11-25T01:09:48.982Z,12.10
2022-11-25T01:12:16.234Z,12.00
2022-11-25T01:14:46.019Z,11.90
2022-11-25T01:17:16.832Z,11.60
2022-11-25T01:19:44.032Z,11.50
2022-11-25T01:22:11.214Z,11.30
2022-11-25T01:24:38.689Z,11.20
2022-11-25T01:27:08.167Z,11.10
2022-11-25T01:29:37.676Z,11.00
2022-11-25T01:32:05.126Z,10.90
2022-11-25T01:34:34.821Z,11.00
2022-11-25T01:37:05.611Z,11.00
2022-11-25T01:39:33.402Z,11.00
2022-11-25T01:42:01.739Z,11.00
2022-11-25T01:44:33.068Z,11.10
2022-11-25T01:47:15.689Z,11.00
2022-11-25T01:49:57.112Z,11.00
2022-11-25T01:52:38.094Z,11.10
2022-11-25T01:55:10.548Z,11.10
2022-11-25T01:57:46.087Z,11.00
2022-11-25T02:00:14.601Z,11.00
2022-11-25T02:02:42.143Z,10.90
2022-11-25T02:05:15.025Z,10.90
2022-11-25T02:07:46.361Z,10.90
2022-11-25T02:10:18.361Z,10.80
2022-11-25T02:12:47.419Z,10.70
2022-11-25T02:15:15.616Z,10.80
2022-11-25T02:17:44.514Z,10.80
2022-11-25T02:20:18.003Z,10.70
2022-11-25T02:22:47.602Z,10.70
2022-11-25T02:25:27.039Z,10.80
2022-11-25T02:28:09.085Z,10.70
2022-11-25T02:30:39.176Z,10.70
2022-11-25T02:33:09.515Z,10.80
2022-11-25T02:35:40.039Z,10.80
2022-11-25T02:38:10.579Z,10.80
2022-11-25T02:40:43.892Z,10.90
2022-11-25T02:43:14.376Z,10.90
2022-11-25T02:46:00.713Z,11.00
2022-11-25T02:48:53.203Z,11.00
2022-11-25T02:51:21.166Z,10.90
2022-11-25T02:53:51.414Z,10.80
2022-11-25T02:56:20.646Z,10.90
2022-11-25T02:58:47.888Z,10.80
2022-11-25T03:01:15.655Z,10.90
2022-11-25T03:03:47.891Z,10.80
2022-11-25T03:06:15.228Z,10.80
2022-11-25T03:08:44.956Z,10.80
2022-11-25T03:11:12.183Z,10.70
2022-11-25T03:13:39.853Z,10.60
2022-11-25T03:16:07.624Z,10.40
2022-11-25T03:18:35.498Z,10.40
2022-11-25T03:21:05.437Z,10.50
2022-11-25T03:23:32.829Z,10.40
2022-11-25T03:26:00.077Z,10.40
2022-11-25T03:28:29.419Z,10.40
2022-11-25T03:30:57.156Z,10.40
2022-11-25T03:33:24.353Z,10.30
2022-11-25T03:35:54.079Z,10.30
2022-11-25T03:38:23.408Z,10.30
2022-11-25T03:40:53.214Z,10.30
2022-11-25T03:43:23.419Z,10.20
2022-11-25T03:45:51.369Z,10.30
2022-11-25T03:48:18.681Z,10.30
2022-11-25T03:50:48.964Z,10.30
2022-11-25T03:53:19.213Z,10.30
2022-11-25T03:55:48.649Z,10.30
2022-11-25T03:58:16.288Z,10.30
2022-11-25T04:00:43.867Z,10.20
2022-11-25T04:03:11.094Z,10.20
2022-11-25T04:05:41.161Z,10.10
2022-11-25T04:08:08.997Z,10.00
2022-11-25T04:10:36.758Z,10.00
2022-11-25T04:13:03.967Z,10.00
2022-11-25T04:15:31.196Z,10.10
2022-11-25T04:18:00.990Z,10.10
2022-11-25T04:20:28.206Z,10.00
2022-11-25T04:22:55.381Z,9.90
2022-11-25T04:25:22.639Z,9.80
2022-11-25T04:27:49.831Z,9.80
2022-11-25T04:30:19.944Z,9.70
2022-11-25T04:32:47.572Z,9.60
2022-11-25T04:35:15.236Z,9.60
2022-11-25T04:37:42.452Z,9.60
2022-11-25T04:40:10.872Z,9.70
2022-11-25T04:42:39.697Z,9.70
2022-11-25T04:45:25.650Z,9.70
2022-11-25T04:47:52.962Z,9.70
2022-11-25T04:50:22.815Z,9.80
2022-11-25T04:52:50.251Z,9.90
2022-11-25T04:55:17.510Z,9.90
2022-11-25T04:57:44.773Z,9.80
2022-11-25T05:00:12.512Z,9.80
2022-11-25T05:02:39.855Z,9.70
2022-11-25T05:05:07.707Z,9.80
2022-11-25T05:07:38.666Z,9.80
2022-11-25T05:10:09.358Z,9.90
2022-11-25T05:12:36.880Z,9.90
2022-11-25T05:15:05.746Z,9.90
2022-11-25T05:17:33.776Z,10.00
2022-11-25T05:20:01.594Z,10.00
2022-11-25T05:22:32.480Z,10.00
2022-11-25T05:25:02.498Z,9.90
2022-11-25T05:27:31.828Z,9.90
2022-11-25T05:30:01.244Z,10.00
2022-11-25T05:32:31.329Z,9.90
2022-11-25T05:34:58.508Z,9.90
2022-11-25T05:37:25.706Z,9.90
2022-11-25T05:39:57.604Z,10.00
2022-11-25T05:42:24.877Z,9.90
2022-11-25T05:44:54.499Z,9.80
2022-11-25T05:47:21.705Z,9.80
2022-11-25T05:49:48.959Z,9.80
2022-11-25T05:52:16.594Z,9.60
2022-11-25T05:54:43.826Z,9.70
2022-11-25T05:57:11.027Z,9.80
2022-11-25T05:59:41.397Z,9.80
2022-11-25T06:02:11.456Z,9.80
2022-11-25T06:04:38.961Z,9.80
2022-11-25T06:07:07.443Z,9.70
2022-11-25T06:09:35.241Z,9.80
2022-11-25T06:12:04.596Z,9.70
2022-11-25T06:14:31.807Z,9.70
2022-11-25T06:16:59.029Z,9.70
2022-11-25T06:19:28.667Z,9.70
2022-11-25T06:21:56.394Z,9.60
2022-11-25T06:24:26.660Z,9.60
2022-11-25T06:26:56.596Z,9.50
2022-11-25T06:29:24.314Z,9.60
2022-11-25T06:31:54.300Z,9.50
2022-11-25T06:34:21.525Z,9.50
2022-11-25T06:36:50.238Z,9.50
2022-11-25T06:39:20.250Z,9.50
2022-11-25T06:41:47.395Z,9.50
2022-11-25T06:44:15.383Z,9.50
2022-11-25T06:46:43.083Z,9.40
2022-11-25T06:49:12.761Z,9.40
2022-11-25T06:51:40.441Z,9.40
2022-11-25T06:54:10.341Z,9.40
2022-11-25T06:56:39.189Z,9.50
2022-11-25T06:59:07.154Z,9.40
2022-11-25T07:01:36.568Z,9.40
2022-11-25T07:04:05.678Z,9.40
2022-11-25T07:06:33.732Z,9.40
2022-11-25T07:09:02.082Z,9.50
2022-11-25T07:11:31.296Z,9.50
2022-11-25T07:14:10.782Z,9.40
2022-11-25T07:16:43.456Z,9.40
2022-11-25T07:19:13.305Z,9.40
2022-11-25T07:21:41.483Z,9.40
2022-11-25T07:24:10.165Z,9.50
2022-11-25T07:26:39.283Z,9.60
2022-11-25T07:29:50.451Z,9.50
2022-11-25T07:32:08.880Z,9.60
2022-11-25T07:34:37.994Z,9.50
2022-11-25T07:37:05.630Z,9.50
2022-11-25T07:39:32.938Z,9.50
2022-11-25T07:42:00.143Z,9.50
2022-11-25T07:44:27.373Z,9.50
2022-11-25T07:46:57.581Z,9.60
2022-11-25T07:49:32.110Z,9.70
2022-11-25T07:52:00.609Z,9.80
2022-11-25T07:54:28.320Z,9.90
2022-11-25T07:56:58.059Z,10.00
2022-11-25T07:59:26.159Z,9.90
2022-11-25T08:01:55.313Z,9.90
2022-11-25T08:04:23.213Z,9.90
2022-11-25T08:06:53.111Z,10.00
2022-11-25T08:09:25.240Z,10.10
2022-11-25T08:11:52.943Z,10.20
2022-11-25T08:14:22.431Z,10.10
2022-11-25T08:16:50.120Z,10.20
2022-11-25T08:19:18.187Z,10.30
2022-11-25T08:21:48.067Z,10.40
2022-11-25T08:24:20.755Z,10.60
2022-11-25T08:26:51.365Z,10.80
2022-11-25T08:29:19.393Z,10.80
2022-11-25T08:31:47.007Z,10.80
2022-11-25T08:34:24.813Z,10.80
2022-11-25T08:36:54.628Z,10.80
2022-11-25T08:42:11.311Z,10.90
2022-11-25T08:44:41.406Z,11.10
2022-11-25T08:47:11.665Z,11.40
2022-11-25T08:49:42.397Z,11.50
2022-11-25T08:52:10.177Z,11.50
2022-11-25T08:54:37.728Z,11.60
2022-11-25T08:57:05.250Z,11.80
2022-11-25T08:59:35.039Z,12.10
2022-11-25T09:02:03.102Z,12.80
2022-11-25T09:04:30.419Z,13.90
2022-11-25T09:06:57.661Z,14.70
2022-11-25T09:09:27.043Z,15.30
2022-11-25T09:11:56.532Z,15.20
2022-11-25T09:14:23.861Z,14.50
2022-11-25T09:16:51.498Z,13.80
2022-11-25T09:19:22.737Z,13.70
2022-11-25T09:21:50.047Z,14.40
2022-11-25T09:24:17.782Z,15.20
2022-11-25T09:26:45.619Z,16.10
2022-11-25T09:29:14.132Z,16.70
2022-11-25T09:31:41.485Z,17.20
2022-11-25T09:34:09.907Z,17.30
2022-11-25T09:36:39.774Z,17.80
2022-11-25T09:39:07.841Z,18.50
2022-11-25T09:42:11.856Z,18.40
2022-11-25T09:45:15.578Z,18.90
2022-11-25T09:47:52.937Z,19.60
2022-11-25T09:50:35.185Z,19.40
2022-11-25T09:53:30.221Z,19.50
2022-11-25T10:32:25.696Z,20.30
2022-11-25T10:34:59.516Z,21.50
2022-11-25T10:37:36.563Z,20.70
2022-11-25T10:40:06.680Z,20.50
2022-11-25T10:42:38.625Z,20.80
2022-11-25T10:45:09.022Z,21.00
2022-11-25T10:47:41.577Z,21.10
2022-11-25T10:50:23.350Z,21.40
2022-11-25T10:52:54.899Z,21.80
2022-11-25T10:55:33.976Z,22.00
2022-11-25T10:58:28.573Z,22.30
2022-11-25T11:01:04.390Z,23.30
2022-11-25T11:03:34.657Z,23.50
2022-11-25T11:06:02.635Z,23.60
2022-11-25T11:08:41.159Z,23.70
2022-11-25T11:11:24.280Z,23.90
2022-11-25T11:14:18.828Z,23.50
2022-11-25T11:16:54.331Z,23.70
2022-11-25T11:19:24.988Z,23.90
2022-11-25T11:21:52.545Z,23.20
2022-11-25T11:24:32.018Z,23.00
2022-11-25T11:27:18.407Z,22.80
2022-11-25T11:29:45.669Z,22.60
2022-11-25T11:32:31.472Z,22.30
2022-11-25T11:35:25.296Z,22.20
2022-11-25T11:37:58.826Z,22.60
2022-11-25T11:40:47.558Z,22.50
2022-11-25T11:43:59.074Z,22.30
2022-11-25T11:47:07.529Z,22.60
2022-11-25T11:49:46.421Z,22.70
2022-11-25T11:52:38.212Z,23.30
2022-11-25T11:55:27.117Z,23.60
2022-11-25T11:58:25.118Z,23.60
2022-11-25T12:01:04.177Z,23.50
2022-11-25T12:03:39.278Z,23.60
2022-11-25T12:06:10.263Z,23.70
2022-11-25T12:08:59.092Z,23.40
2022-11-25T12:11:37.363Z,23.40
2022-11-25T12:14:12.512Z,24.00
2022-11-25T12:17:01.915Z,24.00
2022-11-25T12:20:00.709Z,23.90
2022-11-25T12:22:32.444Z,23.20
2022-11-25T12:25:06.769Z,23.20
2022-11-25T12:27:47.817Z,22.90
2022-11-25T12:30:22.539Z,23.00
2022-11-25T12:32:55.841Z,23.10
2022-11-25T12:35:41.658Z,22.90
2022-11-25T12:38:23.106Z,22.90
2022-11-25T12:40:58.446Z,22.80
2022-11-25T12:43:50.138Z,23.00
2022-11-25T12:46:34.798Z,22.60
2022-11-25T12:49:02.852Z,21.90
2022-11-25T12:51:59.113Z,21.20
2022-11-25T12:54:54.234Z,20.90
2022-11-25T12:57:43.153Z,21.00
2022-11-25T13:00:41.439Z,21.40
2022-11-25T13:03:28.167Z,21.50
2022-11-25T13:06:05.796Z,21.30
2022-11-25T13:09:11.813Z,20.60
2022-11-25T13:12:03.936Z,19.90
2022-11-25T13:15:13.903Z,20.40
2022-11-25T13:17:46.114Z,21.00
2022-11-25T13:20:47.263Z,20.60
2022-11-25T13:23:17.657Z,20.10
2022-11-25T13:25:50.435Z,19.90
2022-11-25T13:28:44.086Z,20.00
2022-11-25T13:31:14.838Z,20.40
2022-11-25T13:33:56.001Z,20.40
2022-11-25T13:36:27.631Z,20.60
2022-11-25T13:39:01.053Z,20.60
2022-11-25T13:41:36.468Z,20.40
2022-11-25T13:44:54.594Z,20.30
2022-11-25T13:47:43.428Z,20.20
2022-11-25T13:50:22.212Z,20.30
2022-11-25T13:53:02.965Z,20.50
2022-11-25T13:55:41.857Z,20.70
2022-11-25T13:58:18.979Z,20.90
2022-11-25T14:01:10.888Z,21.10
2022-11-25T14:03:49.074Z,20.80
2022-11-25T14:06:28.342Z,20.90
2022-11-25T14:09:06.506Z,20.90
2022-11-25T14:11:51.559Z,20.60
2022-11-25T14:14:55.749Z,20.50
2022-11-25T14:17:35.485Z,20.70
2022-11-25T14:20:21.245Z,20.40
2022-11-25T14:23:07.325Z,20.10
2022-11-25T14:25:51.835Z,19.80
2022-11-25T14:28:53.300Z,19.30
2022-11-25T14:31:27.616Z,19.00
2022-11-25T14:34:01.543Z,18.20
2022-11-25T14:36:39.337Z,18.00
2022-11-25T14:39:13.780Z,17.90
2022-11-25T14:42:07.659Z,18.10
2022-11-25T14:44:48.792Z,18.00
2022-11-25T14:47:23.373Z,17.80
2022-11-25T14:50:05.672Z,17.40
2022-11-25T14:52:43.822Z,17.00
2022-11-25T14:55:11.850Z,16.50
2022-11-25T14:57:45.373Z,16.20
2022-11-25T15:00:27.350Z,15.90
2022-11-25T15:02:58.889Z,15.80
2022-11-25T15:05:35.246Z,15.80
2022-11-25T15:08:14.364Z,15.70
2022-11-25T15:10:55.333Z,15.60
2022-11-25T15:13:44.373Z,15.50
2022-11-25T15:16:21.837Z,15.60
2022-11-25T15:18:49.637Z,15.50
2022-11-25T15:21:28.207Z,15.50
2022-11-25T15:23:58.203Z,15.40
2022-11-25T15:26:30.804Z,15.30
2022-11-25T15:29:06.100Z,15.40
2022-11-25T15:31:36.014Z,15.40
2022-11-25T15:34:12.803Z,15.20
2022-11-25T15:36:40.914Z,15.10
2022-11-25T15:39:23.457Z,14.90
2022-11-25T15:41:55.467Z,14.80
2022-11-25T15:44:31.995Z,14.80
2022-11-25T15:47:06.600Z,14.70
2022-11-25T15:49:35.850Z,14.60
2022-11-25T15:52:09.320Z,14.50
2022-11-25T15:54:49.251Z,14.40
2022-11-25T15:57:31.690Z,14.40
2022-11-25T15:59:59.412Z,14.20
2022-11-25T16:02:41.515Z,14.20
2022-11-25T16:05:17.990Z,14.10
2022-11-25T16:07:51.928Z,14.10
2022-11-25T16:10:29.138Z,14.00
2022-11-25T16:13:21.227Z,13.90
2022-11-25T16:16:10.864Z,14.00
2022-11-25T16:19:02.939Z,13.80
2022-11-25T16:21:41.842Z,13.60
2022-11-25T16:24:17.038Z,13.50
2022-11-25T16:26:58.317Z,13.30
2022-11-25T16:29:35.521Z,13.30
2022-11-25T16:32:17.474Z,13.20
2022-11-25T16:34:45.891Z,13.10
2022-11-25T16:37:13.199Z,13.20
2022-11-25T16:39:43.209Z,13.10
2022-11-25T16:42:21.624Z,13.00
2022-11-25T16:44:52.782Z,12.90
2022-11-25T16:47:22.249Z,12.80
2022-11-25T16:49:53.072Z,12.80
2022-11-25T16:52:21.389Z,12.70
2022-11-25T16:54:49.084Z,12.60
2022-11-25T16:57:20.617Z,12.50
2022-11-25T16:59:53.215Z,12.50
2022-11-25T17:02:24.645Z,12.50
2022-11-25T17:04:52.662Z,12.50
2022-11-25T17:07:36.028Z,12.40
2022-11-25T17:10:03.985Z,12.40
2022-11-25T17:12:34.344Z,12.30
2022-11-25T17:15:04.527Z,12.40
2022-11-25T17:17:32.517Z,12.20
2022-11-25T17:20:00.389Z,12.20
2022-11-25T17:22:33.343Z,12.10
2022-11-25T17:25:03.564Z,12.20
2022-11-25T17:27:33.293Z,12.10
2022-11-25T17:30:08.912Z,12.10
2022-11-25T17:32:36.568Z,11.90
2022-11-25T17:35:04.588Z,11.90
2022-11-25T17:37:34.771Z,11.80
2022-11-25T17:40:01.984Z,11.90
2022-11-25T17:42:32.134Z,11.90
2022-11-25T17:45:00.910Z,11.90
2022-11-25T17:47:28.336Z,11.90
2022-11-25T17:49:56.131Z,11.90
2022-11-25T17:52:23.451Z,11.90
2022-11-25T17:54:53.782Z,11.80
2022-11-25T17:57:29.174Z,11.80
2022-11-25T17:59:58.706Z,11.90
2022-11-25T18:02:29.000Z,11.80
2022-11-25T18:04:58.778Z,11.80
2022-11-25T18:07:26.148Z,11.80
2022-11-25T18:09:54.142Z,11.70
2022-11-25T18:12:30.836Z,11.60
2022-11-25T18:14:58.789Z,11.60
2022-11-25T18:17:29.171Z,11.60
2022-11-25T18:19:56.487Z,11.50
2022-11-25T18:22:26.222Z,11.50
2022-11-25T18:24:53.753Z,11.50
2022-11-25T18:27:27.008Z,11.40
2022-11-25T18:29:55.975Z,11.50
2022-11-25T18:32:23.665Z,11.50
2022-11-25T18:34:52.138Z,11.30
2022-11-25T18:37:19.415Z,11.20
2022-11-25T18:39:46.744Z,11.20
2022-11-25T18:42:25.674Z,11.00
2022-11-25T18:44:55.899Z,10.90
2022-11-25T18:47:23.553Z,10.90
2022-11-25T18:49:55.758Z,10.80
2022-11-25T18:52:24.676Z,10.80
2022-11-25T18:54:52.580Z,10.80
2022-11-25T18:57:20.132Z,10.70
2022-11-25T19:00:00.207Z,10.60
2022-11-25T19:02:37.489Z,10.60
2022-11-25T19:05:20.282Z,10.50
2022-11-25T19:07:49.401Z,10.50
2022-11-25T19:10:20.724Z,10.60
2022-11-25T19:12:53.468Z,10.60
2022-11-25T19:15:23.727Z,10.70
2022-11-25T19:18:00.769Z,10.70
2022-11-25T19:20:30.140Z,10.60
2022-11-25T19:23:00.905Z,10.70
2022-11-25T19:25:29.314Z,10.70
2022-11-25T19:28:00.405Z,10.70
2022-11-25T19:30:32.281Z,10.60
2022-11-25T19:33:03.012Z,10.50
2022-11-25T19:35:34.300Z,10.40
2022-11-25T19:38:02.410Z,10.40
2022-11-25T19:40:38.959Z,10.30
2022-11-25T19:43:08.222Z,10.30
2022-11-25T19:45:36.535Z,10.20
2022-11-25T19:48:12.148Z,10.10
2022-11-25T19:50:42.400Z,10.10
2022-11-25T19:53:18.649Z,9.90
2022-11-25T19:55:49.135Z,9.90
2022-11-25T19:58:18.994Z,9.80
2022-11-25T20:00:47.832Z,9.60
2022-11-25T20:03:22.220Z,9.60
2022-11-25T20:05:51.933Z,9.50
2022-11-25T20:08:25.356Z,9.40
2022-11-25T20:10:53.024Z,9.40
2022-11-25T20:13:24.054Z,9.40
2022-11-25T20:15:52.426Z,9.20
2022-11-25T20:18:23.853Z,9.10
2022-11-25T20:20:59.745Z,9.00
2022-11-25T20:23:43.639Z,9.00
2022-11-25T20:26:45.977Z,9.00
2022-11-25T20:29:24.703Z,9.00
2022-11-25T20:31:57.051Z,8.90
2022-11-25T20:34:25.452Z,8.90
2022-11-25T20:36:52.750Z,8.70
2022-11-25T20:39:20.801Z,8.80
2022-11-25T20:41:50.860Z,8.70
2022-11-25T20:44:19.051Z,8.70
2022-11-25T20:46:46.365Z,8.70
2022-11-25T20:49:21.671Z,8.80
2022-11-25T20:51:49.827Z,8.70
2022-11-25T20:54:17.754Z,8.80
2022-11-25T20:56:45.540Z,8.80
2022-11-25T20:59:21.662Z,8.90
2022-11-25T21:01:50.802Z,9.00
2022-11-25T21:04:18.472Z,8.90
2022-11-25T21:06:46.427Z,8.90
2022-11-25T21:09:23.200Z,8.90
2022-11-25T21:11:52.835Z,8.90
2022-11-25T21:14:21.030Z,8.90
2022-11-25T21:16:48.975Z,8.90
2022-11-25T21:19:16.351Z,8.90
2022-11-25T21:21:49.451Z,8.90
2022-11-25T21:24:25.751Z,8.90
2022-11-25T21:26:58.741Z,9.00
2022-11-25T21:29:27.479Z,9.00
2022-11-25T21:31:55.256Z,9.10
2022-11-25T21:34:22.815Z,9.00
2022-11-25T21:36:54.642Z,8.90
2022-11-25T21:39:34.006Z,8.90
2022-11-25T21:42:07.249Z,8.90
2022-11-25T21:44:40.050Z,8.80
2022-11-25T21:47:18.591Z,8.90
2022-11-25T21:49:46.347Z,8.80
2022-11-25T21:52:14.208Z,8.70
2022-11-25T21:54:42.081Z,8.70
2022-11-25T21:57:26.044Z,8.70
2022-11-25T21:59:53.800Z,8.60
2022-11-25T22:02:23.592Z,8.60
2022-11-25T22:04:51.734Z,8.50
2022-11-25T22:07:19.041Z,8.50
2022-11-25T22:09:48.656Z,8.40
2022-11-25T22:12:39.778Z,8.30
2022-11-25T22:15:21.524Z,8.30
2022-11-25T22:17:55.309Z,8.30
2022-11-25T22:20:34.338Z,8.30
2022-11-25T22:23:02.775Z,8.30
2022-11-25T22:25:32.642Z,8.30
2022-11-25T22:27:59.947Z,8.20
2022-11-25T22:30:27.193Z,8.10
2022-11-25T22:33:02.978Z,8.10
2022-11-25T22:35:30.739Z,8.10
2022-11-25T22:37:58.520Z,8.10
2022-11-25T22:40:26.330Z,8.00
2022-11-25T22:42:56.129Z,7.90
2022-11-25T22:45:34.221Z,7.90
2022-11-25T22:48:05.889Z,7.90
2022-11-25T22:50:34.878Z,8.00
2022-11-25T22:53:02.166Z,8.00
2022-11-25T22:55:32.616Z,8.10
2022-11-25T22:58:01.713Z,8.10
2022-11-25T23:00:36.298Z,8.30
2022-11-25T23:03:06.743Z,8.30
2022-11-25T23:05:39.015Z,8.40
2022-11-25T23:08:15.187Z,8.40
2022-11-25T23:10:42.515Z,8.40
2022-11-25T23:13:14.567Z,8.40
2022-11-25T23:15:47.344Z,8.30
2022-11-25T23:18:22.279Z,8.30
2022-11-25T23:20:51.892Z,8.40
2022-11-25T23:23:27.014Z,8.40
2022-11-25T23:25:56.193Z,8.40
2022-11-25T23:28:23.536Z,8.30
2022-11-25T23:30:54.574Z,8.30
2022-11-25T23:33:30.467Z,8.30
2022-11-25T23:35:58.920Z,8.40
2022-11-25T23:38:28.771Z,8.40
2022-11-25T23:40:58.910Z,8.40
2022-11-25T23:43:29.416Z,8.40
2022-11-25T23:45:57.737Z,8.40
2022-11-25T23:48:29.866Z,8.40
2022-11-25T23:50:58.803Z,8.40
2022-11-25T23:53:30.188Z,8.40
2022-11-25T23:55:57.455Z,8.40
2022-11-25T23:58:25.169Z,8.40
